createdAt,value
2022-11-24T00:01:17.970Z,3.80
2022-11-24T00:03:52.790Z,4.03
2022-11-24T00:06:19.716Z,4.45
2022-11-24T00:08:47.724Z,4.13
2022-11-24T00:11:20.341Z,3.80
2022-11-24T00:13:48.052Z,3.55
2022-11-24T00:16:29.453Z,3.38
2022-11-24T00:18:59.271Z,3.28
2022-11-24T00:21:28.149Z,3.33
2022-11-24T00:23:55.384Z,3.33
2022-11-24T00:26:29.015Z,3.13
2022-11-24T00:29:00.575Z,2.90
2022-11-24T00:31:35.676Z,3.13
2022-11-24T00:34:06.783Z,2.85
2022-11-24T00:36:35.732Z,3.72
2022-11-24T00:39:07.046Z,3.22
2022-11-24T00:41:35.050Z,2.50
2022-11-24T00:44:02.341Z,3.13
2022-11-24T00:46:29.654Z,3.10
2022-11-24T00:48:57.566Z,2.83
2022-11-24T00:51:27.949Z,2.90
2022-11-24T00:53:56.319Z,3.47
2022-11-24T00:56:24.784Z,3.15
2022-11-24T00:58:52.917Z,3.53
2022-11-24T01:01:23.670Z,3.28
2022-11-24T01:03:51.583Z,3.40
2022-11-24T01:06:21.970Z,2.90
2022-11-24T01:08:48.877Z,3.67
2022-11-24T01:11:54.132Z,4.22
2022-11-24T01:14:24.572Z,3.10
2022-11-24T01:16:51.631Z,3.00
2022-11-24T01:19:19.196Z,3.03
2022-11-24T01:21:46.809Z,3.55
2022-11-24T01:24:14.149Z,3.05
2022-11-24T01:26:41.519Z,3.40
2022-11-24T01:29:10.965Z,3.15
2022-11-24T01:31:38.106Z,3.40
2022-11-24T01:34:04.923Z,3.08
2022-11-24T01:36:31.750Z,2.85
2022-11-24T01:38:58.582Z,3.92
2022-11-24T01:41:26.142Z,3.83
2022-11-24T01:43:55.560Z,3.13
2022-11-24T01:46:34.269Z,3.25
2022-11-24T01:49:36.576Z,3.55
2022-11-24T01:52:13.207Z,3.20
2022-11-24T01:54:53.194Z,3.63
2022-11-24T01:57:33.337Z,2.88
2022-11-24T02:00:08.726Z,2.50
2022-11-24T02:02:44.267Z,2.67
2022-11-24T02:06:04.115Z,2.50
2022-11-24T02:08:33.786Z,2.63
2022-11-24T02:11:04.815Z,2.88
2022-11-24T02:13:35.445Z,2.70
2022-11-24T02:16:03.763Z,2.70
2022-11-24T02:18:30.686Z,2.65
2022-11-24T02:20:59.302Z,2.85
2022-11-24T02:23:59.251Z,2.42
2022-11-24T02:26:32.020Z,2.47
2022-11-24T02:28:59.674Z,2.90
2022-11-24T02:31:26.827Z,2.38
2022-11-24T02:33:55.138Z,3.15
2022-11-24T02:36:21.972Z,2.35
2022-11-24T02:38:48.824Z,2.47
2022-11-24T02:41:21.459Z,2.72
2022-11-24T02:44:01.235Z,2.30
2022-11-24T02:46:28.136Z,2.42
2022-11-24T02:48:55.074Z,2.78
2022-11-24T02:51:22.147Z,2.50
2022-11-24T02:53:48.970Z,2.35
2022-11-24T02:56:15.842Z,2.45
2022-11-24T02:58:42.724Z,3.00
2022-11-24T03:01:09.596Z,2.72
2022-11-24T03:03:37.011Z,2.60
2022-11-24T03:06:04.037Z,2.50
2022-11-24T03:08:30.863Z,2.33
2022-11-24T03:10:57.704Z,3.08
2022-11-24T03:13:24.586Z,2.25
2022-11-24T03:15:51.512Z,1.85
2022-11-24T03:18:18.395Z,2.42
2022-11-24T03:20:45.320Z,2.60
2022-11-24T03:23:12.241Z,1.92
2022-11-24T03:25:39.664Z,2.10
2022-11-24T03:28:06.489Z,1.63
2022-11-24T03:30:33.370Z,2.00
2022-11-24T03:33:00.193Z,2.28
2022-11-24T03:35:27.132Z,2.05
2022-11-24T03:37:54.054Z,1.70
2022-11-24T03:40:20.858Z,2.10
2022-11-24T03:42:47.702Z,1.85
2022-11-24T03:45:45.650Z,2.20
2022-11-24T03:48:02.133Z,2.63
2022-11-24T03:50:29.156Z,2.20
2022-11-24T03:52:56.060Z,2.17
2022-11-24T03:55:22.914Z,1.73
2022-11-24T03:57:49.814Z,2.75
2022-11-24T04:00:17.507Z,2.60
2022-11-24T04:02:44.389Z,2.88
2022-11-24T04:05:11.544Z,2.58
2022-11-24T04:07:38.430Z,2.50
2022-11-24T04:10:06.319Z,3.58
2022-11-24T04:12:45.154Z,2.97
2022-11-24T04:15:18.803Z,2.72
2022-11-24T04:17:47.560Z,2.70
2022-11-24T04:20:15.459Z,3.13
2022-11-24T04:22:42.974Z,2.35
2022-11-24T04:25:10.894Z,3.05
2022-11-24T04:27:38.607Z,2.80
2022-11-24T04:30:07.327Z,2.95
2022-11-24T04:32:34.103Z,2.85
2022-11-24T04:35:00.876Z,2.85
2022-11-24T04:37:28.072Z,2.75
2022-11-24T04:39:55.250Z,2.22
2022-11-24T04:42:22.068Z,3.05
2022-11-24T04:44:48.845Z,3.63
2022-11-24T04:47:20.234Z,2.53
2022-11-24T04:49:48.977Z,2.65
2022-11-24T04:52:21.511Z,3.75
2022-11-24T04:54:48.837Z,2.78
2022-11-24T04:57:18.879Z,2.90
2022-11-24T04:59:46.352Z,2.75
2022-11-24T05:02:13.351Z,2.92
2022-11-24T05:04:40.270Z,2.53
2022-11-24T05:07:07.558Z,2.65
2022-11-24T05:09:55.213Z,1.98
2022-11-24T05:12:21.261Z,2.78
2022-11-24T05:14:48.046Z,1.73
2022-11-24T05:17:14.885Z,1.48
2022-11-24T05:19:41.657Z,0.90
2022-11-24T05:22:08.539Z,0.95
2022-11-24T05:24:35.704Z,1.25
2022-11-24T05:27:02.618Z,0.80
2022-11-24T05:29:29.352Z,0.80
2022-11-24T05:31:56.122Z,0.50
2022-11-24T05:34:22.995Z,0.52
2022-11-24T05:36:52.846Z,0.65
2022-11-24T05:39:20.849Z,0.60
2022-11-24T05:41:47.877Z,0.55
2022-11-24T05:44:14.952Z,0.63
2022-11-24T05:46:41.779Z,0.63
2022-11-24T05:49:08.634Z,0.40
2022-11-24T05:51:35.462Z,0.50
2022-11-24T05:54:02.190Z,0.70
2022-11-24T05:56:28.967Z,0.70
2022-11-24T05:58:55.755Z,0.73
2022-11-24T06:01:22.591Z,0.63
2022-11-24T06:03:49.405Z,0.70
2022-11-24T06:06:16.177Z,0.70
2022-11-24T06:08:42.962Z,0.70
2022-11-24T06:11:17.493Z,0.70
2022-11-24T06:13:46.137Z,1.02
2022-11-24T06:16:13.316Z,1.33
2022-11-24T06:18:41.028Z,1.15
2022-11-24T06:21:12.048Z,1.48
2022-11-24T06:23:40.398Z,1.48
2022-11-24T06:26:07.334Z,1.15
2022-11-24T06:28:34.186Z,1.60
2022-11-24T06:31:05.737Z,1.05
2022-11-24T06:33:34.563Z,1.38
2022-11-24T06:36:04.479Z,1.50
2022-11-24T06:38:32.130Z,1.73
2022-11-24T06:41:06.231Z,2.13
2022-11-24T06:43:35.155Z,1.90
2022-11-24T06:46:03.166Z,2.00
2022-11-24T06:48:30.996Z,1.50
2022-11-24T06:51:03.872Z,1.95
2022-11-24T06:53:37.866Z,1.77
2022-11-24T06:56:15.692Z,1.98
2022-11-24T06:58:46.008Z,2.60
2022-11-24T07:01:21.669Z,2.70
2022-11-24T07:03:49.811Z,2.70
2022-11-24T07:06:18.667Z,3.17
2022-11-24T07:08:46.554Z,3.65
2022-11-24T07:11:20.455Z,3.35
2022-11-24T07:13:48.422Z,4.03
2022-11-24T07:16:22.260Z,5.10
2022-11-24T07:18:51.670Z,6.65
2022-11-24T07:21:20.287Z,4.72
2022-11-24T07:23:52.340Z,5.18
2022-11-24T07:26:20.050Z,4.70
2022-11-24T07:28:47.513Z,5.40
2022-11-24T07:31:18.918Z,5.47
2022-11-24T07:33:51.098Z,4.60
2022-11-24T07:36:18.580Z,4.50
2022-11-24T07:38:45.867Z,4.90
2022-11-24T07:41:15.880Z,5.20
2022-11-24T07:43:42.900Z,5.25
2022-11-24T07:46:13.899Z,5.22
2022-11-24T07:48:41.308Z,4.93
2022-11-24T07:51:09.603Z,6.10
2022-11-24T07:53:37.740Z,5.05
2022-11-24T07:56:06.351Z,5.32
2022-11-24T07:58:37.111Z,6.00
2022-11-24T08:01:16.479Z,5.15
2022-11-24T08:03:44.686Z,5.10
2022-11-24T08:06:37.447Z,5.32
2022-11-24T08:09:00.807Z,5.32
2022-11-24T08:11:28.234Z,4.95
2022-11-24T08:13:55.048Z,5.57
2022-11-24T08:16:22.266Z,5.20
2022-11-24T08:18:54.873Z,4.72
2022-11-24T08:21:25.640Z,4.60
2022-11-24T08:23:58.312Z,4.78
2022-11-24T08:26:26.298Z,4.68
2022-11-24T08:28:56.484Z,4.70
2022-11-24T08:31:27.203Z,5.63
2022-11-24T08:33:56.035Z,4.90
2022-11-24T08:36:22.812Z,4.72
2022-11-24T08:38:56.482Z,5.43
2022-11-24T08:41:25.282Z,4.65
2022-11-24T08:43:52.487Z,4.63
2022-11-24T08:46:19.719Z,4.28
2022-11-24T08:48:52.209Z,4.25
2022-11-24T08:51:23.653Z,4.15
2022-11-24T08:53:55.800Z,4.28
2022-11-24T08:56:22.657Z,3.67
2022-11-24T08:58:49.743Z,3.70
2022-11-24T09:01:17.909Z,4.00
2022-11-24T09:03:50.677Z,3.95
2022-11-24T09:06:24.925Z,4.53
2022-11-24T09:08:54.481Z,4.15
2022-11-24T09:11:21.758Z,3.72
2022-11-24T09:13:49.066Z,4.10
2022-11-24T09:16:20.110Z,3.42
2022-11-24T09:18:54.114Z,3.80
2022-11-24T09:21:21.753Z,4.07
2022-11-24T09:23:51.231Z,3.88
2022-11-24T09:26:22.759Z,3.60
2022-11-24T09:28:54.391Z,3.50
2022-11-24T09:31:25.372Z,3.67
2022-11-24T09:33:52.787Z,2.97
2022-11-24T09:36:21.107Z,3.65
2022-11-24T09:38:48.182Z,3.28
2022-11-24T09:41:18.007Z,3.00
2022-11-24T09:44:02.100Z,2.60
2022-11-24T09:47:21.461Z,2.42
2022-11-24T09:49:59.882Z,2.72
2022-11-24T09:53:24.919Z,2.75
2022-11-24T09:56:00.330Z,2.78
2022-11-24T09:58:51.054Z,2.13
2022-11-24T10:01:32.387Z,2.30
2022-11-24T10:04:05.578Z,2.28
2022-11-24T10:06:48.021Z,2.33
2022-11-24T10:09:45.361Z,2.78
2022-11-24T10:12:46.209Z,2.08
2022-11-24T10:15:25.719Z,2.25
2022-11-24T10:18:45.354Z,2.47
2022-11-24T10:21:27.190Z,2.65
2022-11-24T10:24:24.628Z,2.30
2022-11-24T10:27:11.154Z,2.63
2022-11-24T10:29:42.971Z,2.00
2022-11-24T10:32:31.075Z,2.88
2022-11-24T10:35:13.550Z,2.97
2022-11-24T10:38:06.843Z,3.10
2022-11-24T10:41:06.872Z,3.28
2022-11-24T10:43:33.596Z,2.90
2022-11-24T10:46:14.814Z,2.60
2022-11-24T10:48:57.473Z,2.47
2022-11-24T10:51:55.257Z,2.20
2022-11-24T10:54:23.858Z,3.58
2022-11-24T10:56:53.240Z,2.72
2022-11-24T10:59:37.607Z,2.58
2022-11-24T11:02:40.329Z,2.65
2022-11-24T11:05:32.204Z,2.72
2022-11-24T11:08:14.168Z,3.15
2022-11-24T11:10:45.280Z,3.70
2022-11-24T11:13:32.235Z,2.92
2022-11-24T11:15:59.562Z,3.35
2022-11-24T11:18:33.045Z,2.90
2022-11-24T11:21:03.295Z,3.17
2022-11-24T11:23:35.219Z,2.75
2022-11-24T11:26:37.362Z,2.92
2022-11-24T11:35:13.985Z,3.33
2022-11-24T11:37:41.466Z,3.28
2022-11-24T11:40:18.013Z,2.83
2022-11-24T11:43:19.618Z,3.03
2022-11-24T11:45:59.700Z,3.17
2022-11-24T11:48:43.171Z,3.63
2022-11-24T11:51:44.292Z,3.58
2022-11-24T11:54:50.435Z,3.63
2022-11-24T11:57:41.807Z,3.25
2022-11-24T12:00:20.091Z,3.35
2022-11-24T12:03:25.768Z,3.30
2022-11-24T12:06:24.375Z,3.00
2022-11-24T12:09:26.318Z,3.63
2022-11-24T12:12:30.759Z,3.40
2022-11-24T12:15:28.097Z,3.80
2022-11-24T12:18:48.643Z,2.90
2022-11-24T12:21:26.681Z,3.00
2022-11-24T12:24:30.998Z,3.53
2022-11-24T12:27:22.238Z,3.08
2022-11-24T12:30:15.945Z,3.35
2022-11-24T12:33:09.808Z,3.75
2022-11-24T12:35:43.597Z,3.08
2022-11-24T12:38:41.000Z,4.07
2022-11-24T12:44:29.539Z,2.85
2022-11-24T12:47:10.938Z,3.58
2022-11-24T12:49:53.740Z,3.00
2022-11-24T12:52:33.714Z,3.38
2022-11-24T12:55:02.294Z,3.05
2022-11-24T12:57:46.818Z,3.40
2022-11-24T13:00:28.674Z,3.45
2022-11-24T13:03:36.790Z,2.83
2022-11-24T13:06:23.338Z,2.70
2022-11-24T13:08:50.726Z,3.88
2022-11-24T13:11:23.528Z,3.13
2022-11-24T13:14:20.642Z,2.45
2022-11-24T13:17:28.027Z,3.33
2022-11-24T13:19:43.671Z,3.53
2022-11-24T13:22:16.428Z,3.85
2022-11-24T13:24:44.815Z,3.30
2022-11-24T13:27:15.165Z,3.08
2022-11-24T13:29:53.606Z,2.83
2022-11-24T13:32:22.929Z,3.28
2022-11-24T13:34:54.595Z,3.05
2022-11-24T13:37:34.292Z,3.47
2022-11-24T13:40:22.848Z,2.55
2022-11-24T13:43:00.386Z,2.92
2022-11-24T13:45:40.789Z,3.97
2022-11-24T13:48:20.623Z,2.58
2022-11-24T13:50:51.013Z,2.83
2022-11-24T13:53:38.837Z,2.53
2022-11-24T13:56:17.424Z,3.35
2022-11-24T13:58:50.906Z,3.70
2022-11-24T14:01:24.690Z,2.60
2022-11-24T14:04:43.183Z,2.53
2022-11-24T14:07:12.568Z,3.25
2022-11-24T14:09:49.988Z,2.92
2022-11-24T14:12:26.772Z,3.05
2022-11-24T14:14:57.146Z,2.90
2022-11-24T14:17:28.723Z,2.85
2022-11-24T14:19:58.225Z,3.13
2022-11-24T14:22:41.330Z,3.20
2022-11-24T14:25:27.582Z,3.13
2022-11-24T14:27:54.481Z,2.95
2022-11-24T14:30:23.949Z,3.25
2022-11-24T14:33:15.862Z,3.28
2022-11-24T14:35:50.961Z,3.00
2022-11-24T14:38:17.870Z,3.20
2022-11-24T14:40:54.606Z,3.13
2022-11-24T14:43:32.929Z,2.95
2022-11-24T14:46:03.199Z,2.83
2022-11-24T14:48:39.450Z,3.30
2022-11-24T14:51:48.738Z,3.22
2022-11-24T14:54:20.098Z,2.50
2022-11-24T14:57:04.126Z,2.97
2022-11-24T14:59:36.027Z,2.67
2022-11-24T15:02:23.133Z,3.15
2022-11-24T15:05:03.422Z,2.38
2022-11-24T15:07:30.971Z,3.25
2022-11-24T15:10:03.470Z,2.67
2022-11-24T15:12:40.768Z,3.33
2022-11-24T15:15:20.451Z,2.78
2022-11-24T15:17:51.093Z,2.35
2022-11-24T15:20:35.793Z,3.00
2022-11-24T15:23:23.039Z,2.47
2022-11-24T15:26:18.036Z,2.58
2022-11-24T15:28:46.887Z,2.90
2022-11-24T15:31:14.705Z,3.20
2022-11-24T15:33:42.239Z,3.13
2022-11-24T15:36:09.185Z,2.30
2022-11-24T15:38:36.013Z,2.15
2022-11-24T15:41:21.849Z,2.70
2022-11-24T15:43:48.758Z,3.25
2022-11-24T15:46:16.179Z,3.10
2022-11-24T15:48:43.035Z,2.13
2022-11-24T15:51:14.922Z,2.20
2022-11-24T15:53:54.109Z,2.63
2022-11-24T15:56:30.972Z,2.05
2022-11-24T15:58:57.890Z,2.88
2022-11-24T16:01:31.861Z,2.70
2022-11-24T16:03:59.431Z,2.38
2022-11-24T16:06:26.339Z,2.83
2022-11-24T16:08:54.419Z,2.63
2022-11-24T16:11:22.711Z,2.78
2022-11-24T16:13:53.331Z,2.80
2022-11-24T16:16:22.538Z,2.80
2022-11-24T16:18:49.422Z,2.90
2022-11-24T16:21:17.427Z,2.88
2022-11-24T16:23:44.264Z,2.92
2022-11-24T16:26:11.022Z,3.17
2022-11-24T16:28:37.885Z,3.47
2022-11-24T16:31:04.784Z,2.80
2022-11-24T16:33:31.915Z,3.95
2022-11-24T16:35:58.768Z,2.80
2022-11-24T16:38:25.846Z,3.03
2022-11-24T16:40:56.812Z,3.03
2022-11-24T16:43:26.940Z,3.10
2022-11-24T16:46:24.035Z,3.08
2022-11-24T16:48:54.876Z,3.42
2022-11-24T16:51:23.705Z,2.85
2022-11-24T16:53:59.658Z,2.88
2022-11-24T16:56:28.887Z,2.83
2022-11-24T16:58:56.431Z,2.97
2022-11-24T17:01:23.637Z,3.63
2022-11-24T17:03:50.493Z,3.05
2022-11-24T17:06:17.870Z,2.63
2022-11-24T17:08:46.886Z,2.80
2022-11-24T17:11:15.141Z,2.95
2022-11-24T17:13:43.763Z,3.35
2022-11-24T17:16:14.754Z,2.70
2022-11-24T17:18:42.217Z,3.08
2022-11-24T17:21:24.327Z,3.42
2022-11-24T17:24:00.715Z,3.10
2022-11-24T17:26:28.259Z,3.35
2022-11-24T17:28:56.268Z,2.80
2022-11-24T17:31:32.522Z,3.75
2022-11-24T17:34:01.018Z,2.67
2022-11-24T17:36:30.261Z,2.88
2022-11-24T17:38:59.978Z,3.20
2022-11-24T17:41:27.835Z,2.47
2022-11-24T17:43:56.584Z,3.35
2022-11-24T17:46:25.659Z,3.05
2022-11-24T17:48:53.049Z,3.10
2022-11-24T17:51:23.042Z,3.28
2022-11-24T17:53:52.184Z,3.03
2022-11-24T17:56:26.170Z,3.08
2022-11-24T17:58:59.766Z,3.22
2022-11-24T18:01:30.076Z,2.67
2022-11-24T18:03:57.306Z,2.50
2022-11-24T18:06:28.689Z,3.42
2022-11-24T18:08:58.481Z,3.35
2022-11-24T18:11:31.687Z,4.13
2022-11-24T18:14:02.793Z,3.40
2022-11-24T18:16:33.392Z,3.28
2022-11-24T18:19:11.605Z,2.75
2022-11-24T18:21:44.640Z,3.35
2022-11-24T18:24:13.067Z,3.33
2022-11-24T18:26:41.696Z,3.05
2022-11-24T18:29:09.975Z,3.28
2022-11-24T18:31:37.604Z,3.95
2022-11-24T18:34:06.366Z,2.95
2022-11-24T18:36:34.861Z,3.05
2022-11-24T18:39:08.086Z,3.28
2022-11-24T18:41:35.672Z,2.97
2022-11-24T18:44:03.170Z,3.13
2022-11-24T18:46:30.161Z,3.65
2022-11-24T18:48:57.017Z,2.47
2022-11-24T18:51:23.838Z,3.95
2022-11-24T18:53:58.161Z,3.08
2022-11-24T18:56:26.571Z,3.65
2022-11-24T18:58:56.040Z,3.83
2022-11-24T19:01:27.256Z,3.85
2022-11-24T19:03:57.373Z,3.55
2022-11-24T19:06:34.193Z,3.15
2022-11-24T19:09:08.259Z,3.55
2022-11-24T19:11:39.526Z,3.40
2022-11-24T19:14:11.790Z,3.70
2022-11-24T19:16:39.715Z,3.08
2022-11-24T19:19:08.009Z,4.03
2022-11-24T19:21:39.775Z,3.00
2022-11-24T19:24:10.393Z,3.60
2022-11-24T19:26:38.591Z,3.58
2022-11-24T19:29:07.283Z,3.50
2022-11-24T19:31:35.400Z,3.50
2022-11-24T19:34:03.423Z,3.70
2022-11-24T19:36:30.830Z,3.00
2022-11-24T19:38:59.447Z,3.70
2022-11-24T19:41:30.317Z,3.15
2022-11-24T19:43:58.634Z,3.20
2022-11-24T19:46:29.482Z,3.67
2022-11-24T19:49:00.819Z,3.03
2022-11-24T19:51:32.593Z,3.25
2022-11-24T19:54:00.612Z,3.20
2022-11-24T19:56:30.918Z,3.35
2022-11-24T19:58:57.993Z,2.80
2022-11-24T20:01:31.269Z,3.83
2022-11-24T20:04:05.981Z,3.35
2022-11-24T20:06:37.869Z,3.50
2022-11-24T20:09:09.341Z,3.03
2022-11-24T20:11:37.183Z,3.03
2022-11-24T20:14:05.373Z,2.50
2022-11-24T20:16:34.279Z,2.85
2022-11-24T20:19:13.230Z,3.78
2022-11-24T20:21:42.501Z,2.65
2022-11-24T20:24:16.555Z,3.90
2022-11-24T20:26:47.979Z,2.63
2022-11-24T20:29:15.214Z,3.40
2022-11-24T20:31:49.250Z,3.05
2022-11-24T20:34:16.957Z,3.20
2022-11-24T20:36:46.170Z,2.42
2022-11-24T20:39:25.273Z,2.70
2022-11-24T20:41:54.063Z,3.50
2022-11-24T20:44:22.438Z,3.00
2022-11-24T20:46:50.065Z,3.15
2022-11-24T20:49:20.244Z,3.25
2022-11-24T20:51:47.739Z,2.42
2022-11-24T20:54:17.319Z,3.08
2022-11-24T20:56:46.457Z,3.60
2022-11-24T20:59:17.064Z,2.30
2022-11-24T21:01:47.698Z,3.20
2022-11-24T21:04:24.970Z,2.85
2022-11-24T21:06:51.880Z,3.42
2022-11-24T21:09:19.188Z,2.55
2022-11-24T21:11:47.064Z,3.80
2022-11-24T21:14:14.442Z,4.05
2022-11-24T21:16:42.425Z,3.72
2022-11-24T21:19:14.273Z,3.70
2022-11-24T21:21:42.530Z,2.85
2022-11-24T21:24:15.605Z,3.22
2022-11-24T21:26:47.358Z,3.03
2022-11-24T21:29:17.776Z,3.30
2022-11-24T21:31:44.615Z,2.80
2022-11-24T21:34:16.215Z,2.97
2022-11-24T21:36:44.996Z,2.80
2022-11-24T21:39:14.410Z,2.90
2022-11-24T21:41:41.936Z,2.92
2022-11-24T21:44:11.357Z,2.83
2022-11-24T21:46:44.121Z,3.03
2022-11-24T21:49:13.228Z,2.85
2022-11-24T21:51:40.059Z,2.67
2022-11-24T21:54:07.040Z,2.35
2022-11-24T21:56:33.874Z,2.95
2022-11-24T21:59:00.632Z,3.35
2022-11-24T22:01:28.938Z,2.70
2022-11-24T22:03:56.173Z,3.03
2022-11-24T22:06:23.418Z,2.85
2022-11-24T22:08:50.300Z,3.08
2022-11-24T22:11:23.386Z,2.60
2022-11-24T22:13:51.455Z,2.92
2022-11-24T22:16:22.027Z,3.03
2022-11-24T22:18:49.055Z,3.10
2022-11-24T22:21:20.063Z,2.50
2022-11-24T22:23:50.785Z,2.63
2022-11-24T22:26:21.176Z,2.70
2022-11-24T22:28:48.318Z,2.83
2022-11-24T22:31:30.297Z,3.15
2022-11-24T22:33:59.459Z,2.38
2022-11-24T22:36:29.614Z,3.15
2022-11-24T22:38:59.843Z,3.13
2022-11-24T22:41:26.732Z,2.53
2022-11-24T22:43:54.327Z,2.65
2022-11-24T22:46:24.887Z,3.25
2022-11-24T22:48:53.903Z,3.28
2022-11-24T22:51:26.766Z,3.25
2022-11-24T22:53:56.866Z,2.83
2022-11-24T22:56:24.880Z,3.22
2022-11-24T22:58:51.996Z,2.70
2022-11-24T23:01:22.250Z,3.17
2022-11-24T23:03:50.805Z,3.72
2022-11-24T23:06:29.998Z,2.75
2022-11-24T23:08:59.697Z,2.60
2022-11-24T23:11:38.622Z,3.40
2022-11-24T23:14:14.703Z,2.92
2022-11-24T23:16:42.830Z,2.70
2022-11-24T23:19:10.304Z,2.88
2022-11-24T23:21:38.413Z,3.22
2022-11-24T23:24:06.940Z,3.00
2022-11-24T23:26:40.512Z,2.67
2022-11-24T23:29:09.409Z,2.72
2022-11-24T23:31:39.622Z,3.20
2022-11-24T23:34:06.757Z,3.10
2022-11-24T23:36:33.862Z,3.35
2022-11-24T23:39:07.149Z,2.60
2022-11-24T23:41:34.655Z,3.08
2022-11-24T23:44:01.440Z,2.53
2022-11-24T23:46:28.902Z,3.42
2022-11-24T23:48:56.714Z,2.83
2022-11-24T23:51:28.758Z,2.75
2022-11-24T23:53:56.222Z,3.10
2022-11-24T23:56:32.535Z,2.53
2022-11-24T23:59:01.679Z,2.85
